sensor_id;sensor_type;location;lat;lon;timestamp;P1;durP1;ratioP1;P2;durP2;ratioP2
63346;SDS011;49472;49.880;8.650;2023-02-14T00:01:20;36.47;;;27.40;;
63346;SDS011;49472;49.880;8.650;2023-02-14T00:03:46;35.53;;;27.40;;
63346;SDS011;49472;49.880;8.650;2023-02-14T00:06:12;33.73;;;27.43;;
63346;SDS011;49472;49.880;8.650;2023-02-14T00:08:38;34.37;;;28.43;;
63346;SDS011;49472;49.880;8.650;2023-02-14T00:11:05;31.20;;;27.67;;
63346;SDS011;49472;49.880;8.650;2023-02-14T00:13:32;31.13;;;27.37;;
63346;SDS011;49472;49.880;8.650;2023-02-14T00:15:58;29.90;;;26.03;;
63346;SDS011;49472;49.880;8.650;2023-02-14T00:18:23;32.63;;;28.30;;
63346;SDS011;49472;49.880;8.650;2023-02-14T00:21:08;32.47;;;26.57;;
63346;SDS011;49472;49.880;8.650;2023-02-14T00:23:33;31.37;;;27.87;;
63346;SDS011;49472;49.880;8.650;2023-02-14T00:25:59;28.90;;;25.80;;
63346;SDS011;49472;49.880;8.650;2023-02-14T00:28:24;29.27;;;26.13;;
63346;SDS011;49472;49.880;8.650;2023-02-14T00:30:49;31.77;;;26.10;;
63346;SDS011;49472;49.880;8.650;2023-02-14T00:33:15;34.83;;;27.60;;
63346;SDS011;49472;49.880;8.650;2023-02-14T00:35:40;29.50;;;25.77;;
63346;SDS011;49472;49.880;8.650;2023-02-14T00:38:05;27.27;;;24.30;;
63346;SDS011;49472;49.880;8.650;2023-02-14T00:40:31;32.50;;;25.67;;
63346;SDS011;49472;49.880;8.650;2023-02-14T00:42:56;30.60;;;26.83;;
63346;SDS011;49472;49.880;8.650;2023-02-14T00:45:21;30.90;;;27.37;;
63346;SDS011;49472;49.880;8.650;2023-02-14T00:47:46;37.00;;;27.30;;
63346;SDS011;49472;49.880;8.650;2023-02-14T00:50:12;32.50;;;26.60;;
63346;SDS011;49472;49.880;8.650;2023-02-14T00:52:37;30.77;;;26.17;;
63346;SDS011;49472;49.880;8.650;2023-02-14T00:55:02;31.90;;;27.30;;
63346;SDS011;49472;49.880;8.650;2023-02-14T00:57:28;31.13;;;26.93;;
63346;SDS011;49472;49.880;8.650;2023-02-14T00:59:53;32.97;;;26.53;;
63346;SDS011;49472;49.880;8.650;2023-02-14T01:02:18;31.37;;;27.90;;
63346;SDS011;49472;49.880;8.650;2023-02-14T01:04:43;42.73;;;27.67;;
63346;SDS011;49472;49.880;8.650;2023-02-14T01:07:09;33.20;;;27.23;;
63346;SDS011;49472;49.880;8.650;2023-02-14T01:09:34;29.93;;;26.57;;
63346;SDS011;49472;49.880;8.650;2023-02-14T01:11:59;30.67;;;25.40;;
63346;SDS011;49472;49.880;8.650;2023-02-14T01:14:25;31.10;;;26.50;;
63346;SDS011;49472;49.880;8.650;2023-02-14T01:16:50;30.30;;;26.90;;
63346;SDS011;49472;49.880;8.650;2023-02-14T01:19:15;27.97;;;24.83;;
63346;SDS011;49472;49.880;8.650;2023-02-14T01:21:41;30.13;;;26.77;;
63346;SDS011;49472;49.880;8.650;2023-02-14T01:24:06;27.73;;;24.73;;
63346;SDS011;49472;49.880;8.650;2023-02-14T01:26:32;30.00;;;25.87;;
63346;SDS011;49472;49.880;8.650;2023-02-14T01:28:58;36.90;;;25.33;;
63346;SDS011;49472;49.880;8.650;2023-02-14T01:31:27;32.00;;;25.97;;
63346;SDS011;49472;49.880;8.650;2023-02-14T01:33:54;31.73;;;26.53;;
63346;SDS011;49472;49.880;8.650;2023-02-14T01:38:54;33.90;;;25.33;;
63346;SDS011;49472;49.880;8.650;2023-02-14T01:41:23;28.50;;;25.67;;
63346;SDS011;49472;49.880;8.650;2023-02-14T01:46:21;31.30;;;25.43;;
63346;SDS011;49472;49.880;8.650;2023-02-14T01:48:47;28.60;;;25.57;;
63346;SDS011;49472;49.880;8.650;2023-02-14T01:51:14;29.43;;;25.87;;
63346;SDS011;49472;49.880;8.650;2023-02-14T01:53:42;28.90;;;25.77;;
63346;SDS011;49472;49.880;8.650;2023-02-14T01:56:09;35.00;;;27.17;;
63346;SDS011;49472;49.880;8.650;2023-02-14T01:58:39;33.23;;;26.50;;
63346;SDS011;49472;49.880;8.650;2023-02-14T02:01:09;28.93;;;25.90;;
63346;SDS011;49472;49.880;8.650;2023-02-14T02:03:42;42.50;;;26.20;;
63346;SDS011;49472;49.880;8.650;2023-02-14T02:08:51;33.07;;;27.00;;
63346;SDS011;49472;49.880;8.650;2023-02-14T02:11:25;31.03;;;25.30;;
63346;SDS011;49472;49.880;8.650;2023-02-14T02:13:50;28.97;;;24.90;;
63346;SDS011;49472;49.880;8.650;2023-02-14T02:16:21;33.07;;;25.97;;
63346;SDS011;49472;49.880;8.650;2023-02-14T02:19:06;30.87;;;26.07;;
63346;SDS011;49472;49.880;8.650;2023-02-14T02:30:57;32.00;;;25.50;;
63346;SDS011;49472;49.880;8.650;2023-02-14T02:35:51;30.37;;;25.77;;
63346;SDS011;49472;49.880;8.650;2023-02-14T02:43:53;29.03;;;25.90;;
63346;SDS011;49472;49.880;8.650;2023-02-14T02:49:15;28.13;;;25.17;;
63346;SDS011;49472;49.880;8.650;2023-02-14T02:52:15;34.60;;;25.97;;
63346;SDS011;49472;49.880;8.650;2023-02-14T02:55:07;30.70;;;25.83;;
63346;SDS011;49472;49.880;8.650;2023-02-14T02:57:40;30.43;;;25.50;;
63346;SDS011;49472;49.880;8.650;2023-02-14T03:00:07;29.57;;;26.30;;
63346;SDS011;49472;49.880;8.650;2023-02-14T03:02:40;32.47;;;25.40;;
63346;SDS011;49472;49.880;8.650;2023-02-14T03:05:27;30.33;;;24.73;;
63346;SDS011;49472;49.880;8.650;2023-02-14T03:07:53;34.73;;;28.43;;
63346;SDS011;49472;49.880;8.650;2023-02-14T03:10:25;31.47;;;26.00;;
63346;SDS011;49472;49.880;8.650;2023-02-14T03:16:02;28.97;;;26.00;;
63346;SDS011;49472;49.880;8.650;2023-02-14T03:25:10;38.43;;;26.13;;
63346;SDS011;49472;49.880;8.650;2023-02-14T03:27:50;32.33;;;26.90;;
63346;SDS011;49472;49.880;8.650;2023-02-14T03:38:35;35.03;;;27.33;;
63346;SDS011;49472;49.880;8.650;2023-02-14T03:41:10;33.07;;;26.60;;
63346;SDS011;49472;49.880;8.650;2023-02-14T03:43:41;29.47;;;25.20;;
63346;SDS011;49472;49.880;8.650;2023-02-14T03:48:58;32.50;;;26.90;;
63346;SDS011;49472;49.880;8.650;2023-02-14T03:51:27;37.57;;;27.43;;
63346;SDS011;49472;49.880;8.650;2023-02-14T03:53:58;34.27;;;28.20;;
63346;SDS011;49472;49.880;8.650;2023-02-14T03:59:16;41.23;;;29.50;;
63346;SDS011;49472;49.880;8.650;2023-02-14T04:04:14;38.83;;;28.67;;
63346;SDS011;49472;49.880;8.650;2023-02-14T04:06:43;37.70;;;29.53;;
63346;SDS011;49472;49.880;8.650;2023-02-14T04:09:09;37.13;;;28.63;;
63346;SDS011;49472;49.880;8.650;2023-02-14T04:11:34;38.97;;;30.53;;
63346;SDS011;49472;49.880;8.650;2023-02-14T04:14:02;36.10;;;27.07;;
63346;SDS011;49472;49.880;8.650;2023-02-14T04:16:28;40.07;;;28.50;;
63346;SDS011;49472;49.880;8.650;2023-02-14T04:18:53;35.50;;;29.30;;
63346;SDS011;49472;49.880;8.650;2023-02-14T04:21:37;34.13;;;28.03;;
63346;SDS011;49472;49.880;8.650;2023-02-14T04:24:03;33.10;;;27.30;;
63346;SDS011;49472;49.880;8.650;2023-02-14T04:26:28;34.20;;;28.60;;
63346;SDS011;49472;49.880;8.650;2023-02-14T04:28:53;34.53;;;27.73;;
63346;SDS011;49472;49.880;8.650;2023-02-14T04:31:19;39.20;;;28.27;;
63346;SDS011;49472;49.880;8.650;2023-02-14T04:33:44;39.20;;;28.90;;
63346;SDS011;49472;49.880;8.650;2023-02-14T04:36:12;35.53;;;29.03;;
63346;SDS011;49472;49.880;8.650;2023-02-14T04:38:38;35.70;;;28.47;;
63346;SDS011;49472;49.880;8.650;2023-02-14T04:41:03;35.27;;;29.13;;
63346;SDS011;49472;49.880;8.650;2023-02-14T04:43:29;41.10;;;28.70;;
63346;SDS011;49472;49.880;8.650;2023-02-14T04:45:54;34.23;;;27.83;;
63346;SDS011;49472;49.880;8.650;2023-02-14T04:48:19;38.83;;;29.40;;
63346;SDS011;49472;49.880;8.650;2023-02-14T04:50:49;32.80;;;28.23;;
63346;SDS011;49472;49.880;8.650;2023-02-14T04:53:18;35.63;;;29.07;;
63346;SDS011;49472;49.880;8.650;2023-02-14T04:55:44;37.63;;;28.13;;
63346;SDS011;49472;49.880;8.650;2023-02-14T04:58:12;34.87;;;28.50;;
63346;SDS011;49472;49.880;8.650;2023-02-14T05:00:37;36.43;;;28.77;;
63346;SDS011;49472;49.880;8.650;2023-02-14T05:03:02;39.20;;;28.20;;
63346;SDS011;49472;49.880;8.650;2023-02-14T05:05:27;36.73;;;28.73;;
63346;SDS011;49472;49.880;8.650;2023-02-14T05:07:53;37.83;;;30.40;;
63346;SDS011;49472;49.880;8.650;2023-02-14T05:10:18;35.97;;;29.90;;
63346;SDS011;49472;49.880;8.650;2023-02-14T05:12:43;41.37;;;31.20;;
63346;SDS011;49472;49.880;8.650;2023-02-14T05:15:09;39.13;;;30.33;;
63346;SDS011;49472;49.880;8.650;2023-02-14T05:17:34;34.43;;;28.63;;
63346;SDS011;49472;49.880;8.650;2023-02-14T05:20:00;35.70;;;29.57;;
63346;SDS011;49472;49.880;8.650;2023-02-14T05:22:25;45.87;;;30.47;;
63346;SDS011;49472;49.880;8.650;2023-02-14T05:24:50;35.80;;;28.97;;
63346;SDS011;49472;49.880;8.650;2023-02-14T05:27:16;36.70;;;30.67;;
63346;SDS011;49472;49.880;8.650;2023-02-14T05:29:41;37.63;;;29.17;;
63346;SDS011;49472;49.880;8.650;2023-02-14T05:32:06;33.70;;;27.13;;
63346;SDS011;49472;49.880;8.650;2023-02-14T05:34:32;37.00;;;29.70;;
63346;SDS011;49472;49.880;8.650;2023-02-14T05:36:58;35.30;;;29.20;;
63346;SDS011;49472;49.880;8.650;2023-02-14T05:39:23;34.13;;;28.87;;
63346;SDS011;49472;49.880;8.650;2023-02-14T05:41:48;35.50;;;28.80;;
63346;SDS011;49472;49.880;8.650;2023-02-14T05:44:13;33.20;;;27.23;;
63346;SDS011;49472;49.880;8.650;2023-02-14T05:46:39;39.63;;;29.07;;
63346;SDS011;49472;49.880;8.650;2023-02-14T05:49:04;35.93;;;29.37;;
63346;SDS011;49472;49.880;8.650;2023-02-14T05:51:29;33.43;;;29.47;;
63346;SDS011;49472;49.880;8.650;2023-02-14T05:53:55;32.67;;;28.43;;
63346;SDS011;49472;49.880;8.650;2023-02-14T05:56:23;32.83;;;28.23;;
63346;SDS011;49472;49.880;8.650;2023-02-14T05:58:49;33.97;;;29.10;;
63346;SDS011;49472;49.880;8.650;2023-02-14T06:01:14;31.23;;;27.20;;
63346;SDS011;49472;49.880;8.650;2023-02-14T06:03:39;35.60;;;28.50;;
63346;SDS011;49472;49.880;8.650;2023-02-14T06:06:04;32.33;;;26.80;;
63346;SDS011;49472;49.880;8.650;2023-02-14T06:08:30;33.57;;;27.80;;
63346;SDS011;49472;49.880;8.650;2023-02-14T06:10:55;32.80;;;27.67;;
63346;SDS011;49472;49.880;8.650;2023-02-14T06:13:21;32.07;;;26.50;;
63346;SDS011;49472;49.880;8.650;2023-02-14T06:15:46;32.93;;;27.53;;
63346;SDS011;49472;49.880;8.650;2023-02-14T06:18:11;29.07;;;25.87;;
63346;SDS011;49472;49.880;8.650;2023-02-14T06:20:37;31.60;;;28.00;;
63346;SDS011;49472;49.880;8.650;2023-02-14T06:23:02;31.93;;;27.87;;
63346;SDS011;49472;49.880;8.650;2023-02-14T06:25:28;29.90;;;25.93;;
63346;SDS011;49472;49.880;8.650;2023-02-14T06:27:56;32.87;;;27.63;;
63346;SDS011;49472;49.880;8.650;2023-02-14T06:30:23;31.70;;;26.87;;
63346;SDS011;49472;49.880;8.650;2023-02-14T06:32:49;31.23;;;26.93;;
63346;SDS011;49472;49.880;8.650;2023-02-14T06:35:14;30.40;;;26.07;;
63346;SDS011;49472;49.880;8.650;2023-02-14T06:37:41;31.80;;;27.30;;
63346;SDS011;49472;49.880;8.650;2023-02-14T06:40:09;34.23;;;27.70;;
63346;SDS011;49472;49.880;8.650;2023-02-14T06:42:35;35.80;;;29.17;;
63346;SDS011;49472;49.880;8.650;2023-02-14T06:45:01;30.07;;;26.17;;
63346;SDS011;49472;49.880;8.650;2023-02-14T06:47:26;38.13;;;29.37;;
63346;SDS011;49472;49.880;8.650;2023-02-14T06:49:52;34.97;;;27.73;;
63346;SDS011;49472;49.880;8.650;2023-02-14T06:52:17;29.93;;;26.30;;
63346;SDS011;49472;49.880;8.650;2023-02-14T06:54:42;31.27;;;25.40;;
63346;SDS011;49472;49.880;8.650;2023-02-14T06:57:07;35.80;;;27.90;;
63346;SDS011;49472;49.880;8.650;2023-02-14T06:59:33;35.03;;;27.43;;
63346;SDS011;49472;49.880;8.650;2023-02-14T07:01:58;38.47;;;29.27;;
63346;SDS011;49472;49.880;8.650;2023-02-14T07:04:23;29.40;;;26.20;;
63346;SDS011;49472;49.880;8.650;2023-02-14T07:06:49;33.97;;;27.00;;
63346;SDS011;49472;49.880;8.650;2023-02-14T07:09:14;31.40;;;26.90;;
63346;SDS011;49472;49.880;8.650;2023-02-14T07:11:41;35.00;;;27.10;;
63346;SDS011;49472;49.880;8.650;2023-02-14T07:14:07;34.40;;;27.00;;
63346;SDS011;49472;49.880;8.650;2023-02-14T07:16:33;33.43;;;27.27;;
63346;SDS011;49472;49.880;8.650;2023-02-14T07:18:58;33.13;;;27.67;;
63346;SDS011;49472;49.880;8.650;2023-02-14T07:21:23;36.23;;;26.47;;
63346;SDS011;49472;49.880;8.650;2023-02-14T07:23:49;32.57;;;27.13;;
63346;SDS011;49472;49.880;8.650;2023-02-14T07:26:15;33.20;;;26.27;;
63346;SDS011;49472;49.880;8.650;2023-02-14T07:28:42;40.33;;;28.97;;
63346;SDS011;49472;49.880;8.650;2023-02-14T07:31:13;33.70;;;26.30;;
63346;SDS011;49472;49.880;8.650;2023-02-14T07:33:39;32.20;;;26.90;;
63346;SDS011;49472;49.880;8.650;2023-02-14T07:36:06;32.60;;;26.23;;
63346;SDS011;49472;49.880;8.650;2023-02-14T07:38:32;33.20;;;27.40;;
63346;SDS011;49472;49.880;8.650;2023-02-14T07:40:59;40.73;;;28.83;;
63346;SDS011;49472;49.880;8.650;2023-02-14T07:43:24;32.37;;;27.20;;
63346;SDS011;49472;49.880;8.650;2023-02-14T07:45:50;33.30;;;25.30;;
63346;SDS011;49472;49.880;8.650;2023-02-14T07:48:15;35.00;;;28.37;;
63346;SDS011;49472;49.880;8.650;2023-02-14T07:50:40;40.53;;;27.10;;
63346;SDS011;49472;49.880;8.650;2023-02-14T07:53:05;37.97;;;26.33;;
63346;SDS011;49472;49.880;8.650;2023-02-14T07:55:32;30.70;;;25.10;;
63346;SDS011;49472;49.880;8.650;2023-02-14T07:57:58;40.80;;;26.50;;
63346;SDS011;49472;49.880;8.650;2023-02-14T08:00:23;37.83;;;26.80;;
63346;SDS011;49472;49.880;8.650;2023-02-14T08:02:48;52.03;;;25.27;;
63346;SDS011;49472;49.880;8.650;2023-02-14T08:05:13;28.73;;;24.83;;
63346;SDS011;49472;49.880;8.650;2023-02-14T08:07:39;32.60;;;26.20;;
63346;SDS011;49472;49.880;8.650;2023-02-14T08:10:04;30.70;;;25.80;;
63346;SDS011;49472;49.880;8.650;2023-02-14T08:12:30;29.40;;;25.30;;
63346;SDS011;49472;49.880;8.650;2023-02-14T08:15:14;31.93;;;26.07;;
63346;SDS011;49472;49.880;8.650;2023-02-14T08:17:58;30.57;;;25.23;;
63346;SDS011;49472;49.880;8.650;2023-02-14T08:20:23;29.20;;;25.27;;
63346;SDS011;49472;49.880;8.650;2023-02-14T08:22:49;28.83;;;25.60;;
63346;SDS011;49472;49.880;8.650;2023-02-14T08:25:14;30.47;;;25.77;;
63346;SDS011;49472;49.880;8.650;2023-02-14T08:27:39;27.47;;;24.57;;
63346;SDS011;49472;49.880;8.650;2023-02-14T08:30:05;34.47;;;27.10;;
63346;SDS011;49472;49.880;8.650;2023-02-14T08:32:31;28.27;;;25.13;;
63346;SDS011;49472;49.880;8.650;2023-02-14T08:34:56;29.33;;;25.57;;
63346;SDS011;49472;49.880;8.650;2023-02-14T08:37:21;30.57;;;24.90;;
63346;SDS011;49472;49.880;8.650;2023-02-14T08:39:47;28.20;;;25.40;;
63346;SDS011;49472;49.880;8.650;2023-02-14T08:42:12;31.33;;;25.77;;
63346;SDS011;49472;49.880;8.650;2023-02-14T08:44:37;26.70;;;24.00;;
63346;SDS011;49472;49.880;8.650;2023-02-14T08:47:03;29.60;;;24.87;;
63346;SDS011;49472;49.880;8.650;2023-02-14T08:49:28;28.77;;;25.00;;
63346;SDS011;49472;49.880;8.650;2023-02-14T08:51:53;28.70;;;25.60;;
63346;SDS011;49472;49.880;8.650;2023-02-14T08:54:19;30.23;;;26.33;;
63346;SDS011;49472;49.880;8.650;2023-02-14T08:56:44;30.33;;;24.47;;
63346;SDS011;49472;49.880;8.650;2023-02-14T08:59:10;32.13;;;25.80;;
63346;SDS011;49472;49.880;8.650;2023-02-14T09:01:35;34.63;;;25.17;;
63346;SDS011;49472;49.880;8.650;2023-02-14T09:04:01;28.13;;;24.80;;
63346;SDS011;49472;49.880;8.650;2023-02-14T09:06:27;33.27;;;24.80;;
63346;SDS011;49472;49.880;8.650;2023-02-14T09:08:53;29.57;;;26.40;;
63346;SDS011;49472;49.880;8.650;2023-02-14T09:11:20;27.00;;;24.10;;
63346;SDS011;49472;49.880;8.650;2023-02-14T09:13:48;28.43;;;25.37;;
63346;SDS011;49472;49.880;8.650;2023-02-14T09:16:15;27.37;;;23.90;;
63346;SDS011;49472;49.880;8.650;2023-02-14T09:18:42;27.10;;;24.20;;
63346;SDS011;49472;49.880;8.650;2023-02-14T09:21:09;27.33;;;24.40;;
63346;SDS011;49472;49.880;8.650;2023-02-14T09:23:36;33.13;;;27.20;;
63346;SDS011;49472;49.880;8.650;2023-02-14T09:26:03;26.90;;;24.00;;
63346;SDS011;49472;49.880;8.650;2023-02-14T09:28:30;30.50;;;25.13;;
63346;SDS011;49472;49.880;8.650;2023-02-14T09:30:56;27.97;;;24.33;;
63346;SDS011;49472;49.880;8.650;2023-02-14T09:33:22;36.90;;;24.50;;
63346;SDS011;49472;49.880;8.650;2023-02-14T09:35:48;28.30;;;25.40;;
63346;SDS011;49472;49.880;8.650;2023-02-14T09:38:31;26.47;;;23.77;;
63346;SDS011;49472;49.880;8.650;2023-02-14T09:40:57;27.07;;;24.27;;
63346;SDS011;49472;49.880;8.650;2023-02-14T09:45:55;28.70;;;25.90;;
63346;SDS011;49472;49.880;8.650;2023-02-14T09:51:06;27.53;;;24.33;;
63346;SDS011;49472;49.880;8.650;2023-02-14T09:53:38;28.13;;;24.90;;
63346;SDS011;49472;49.880;8.650;2023-02-14T09:58:58;28.83;;;25.43;;
63346;SDS011;49472;49.880;8.650;2023-02-14T10:01:48;31.37;;;26.50;;
63346;SDS011;49472;49.880;8.650;2023-02-14T10:04:26;30.93;;;26.20;;
63346;SDS011;49472;49.880;8.650;2023-02-14T10:09:45;27.43;;;24.57;;
63346;SDS011;49472;49.880;8.650;2023-02-14T10:12:23;30.77;;;26.67;;
63346;SDS011;49472;49.880;8.650;2023-02-14T10:14:54;27.80;;;24.70;;
63346;SDS011;49472;49.880;8.650;2023-02-14T10:17:38;31.87;;;26.60;;
63346;SDS011;49472;49.880;8.650;2023-02-14T10:20:15;29.40;;;25.80;;
63346;SDS011;49472;49.880;8.650;2023-02-14T10:22:54;28.13;;;25.23;;
63346;SDS011;49472;49.880;8.650;2023-02-14T10:25:25;29.63;;;24.50;;
63346;SDS011;49472;49.880;8.650;2023-02-14T10:27:55;28.67;;;25.67;;
63346;SDS011;49472;49.880;8.650;2023-02-14T10:30:22;27.67;;;24.73;;
63346;SDS011;49472;49.880;8.650;2023-02-14T10:32:49;28.27;;;25.30;;
63346;SDS011;49472;49.880;8.650;2023-02-14T10:35:38;30.03;;;26.10;;
63346;SDS011;49472;49.880;8.650;2023-02-14T10:38:14;25.90;;;23.40;;
63346;SDS011;49472;49.880;8.650;2023-02-14T10:46:10;27.50;;;24.67;;
63346;SDS011;49472;49.880;8.650;2023-02-14T10:49:01;25.57;;;22.93;;
63346;SDS011;49472;49.880;8.650;2023-02-14T10:51:49;28.73;;;25.57;;
63346;SDS011;49472;49.880;8.650;2023-02-14T10:57:06;28.27;;;25.47;;
63346;SDS011;49472;49.880;8.650;2023-02-14T11:02:24;29.20;;;26.10;;
63346;SDS011;49472;49.880;8.650;2023-02-14T11:04:56;27.93;;;24.97;;
63346;SDS011;49472;49.880;8.650;2023-02-14T11:07:23;28.13;;;25.13;;
63346;SDS011;49472;49.880;8.650;2023-02-14T11:09:49;27.60;;;24.90;;
63346;SDS011;49472;49.880;8.650;2023-02-14T11:12:36;26.40;;;23.70;;
63346;SDS011;49472;49.880;8.650;2023-02-14T11:15:35;27.83;;;24.73;;
63346;SDS011;49472;49.880;8.650;2023-02-14T11:20:57;32.00;;;27.23;;
63346;SDS011;49472;49.880;8.650;2023-02-14T11:23:24;28.73;;;25.67;;
63346;SDS011;49472;49.880;8.650;2023-02-14T11:25:50;31.07;;;26.87;;
63346;SDS011;49472;49.880;8.650;2023-02-14T11:28:19;27.80;;;25.00;;
63346;SDS011;49472;49.880;8.650;2023-02-14T11:30:46;27.83;;;24.87;;
63346;SDS011;49472;49.880;8.650;2023-02-14T11:36:01;27.83;;;25.03;;
63346;SDS011;49472;49.880;8.650;2023-02-14T11:38:30;27.63;;;24.73;;
63346;SDS011;49472;49.880;8.650;2023-02-14T11:41:02;27.67;;;24.77;;
63346;SDS011;49472;49.880;8.650;2023-02-14T11:43:31;27.80;;;25.03;;
63346;SDS011;49472;49.880;8.650;2023-02-14T11:46:44;30.27;;;26.97;;
63346;SDS011;49472;49.880;8.650;2023-02-14T11:51:29;27.70;;;24.70;;
63346;SDS011;49472;49.880;8.650;2023-02-14T11:53:58;28.07;;;25.00;;
63346;SDS011;49472;49.880;8.650;2023-02-14T12:04:38;28.57;;;24.60;;
63346;SDS011;49472;49.880;8.650;2023-02-14T12:07:18;29.37;;;26.07;;
63346;SDS011;49472;49.880;8.650;2023-02-14T12:09:47;27.63;;;24.73;;
63346;SDS011;49472;49.880;8.650;2023-02-14T12:12:29;28.37;;;25.40;;
63346;SDS011;49472;49.880;8.650;2023-02-14T12:14:58;29.00;;;25.43;;
63346;SDS011;49472;49.880;8.650;2023-02-14T12:17:46;28.87;;;25.37;;
63346;SDS011;49472;49.880;8.650;2023-02-14T12:20:16;29.47;;;26.37;;
63346;SDS011;49472;49.880;8.650;2023-02-14T12:25:39;29.63;;;26.50;;
63346;SDS011;49472;49.880;8.650;2023-02-14T12:31:07;29.87;;;26.80;;
63346;SDS011;49472;49.880;8.650;2023-02-14T12:33:36;27.90;;;25.10;;
63346;SDS011;49472;49.880;8.650;2023-02-14T12:41:48;28.30;;;25.40;;
63346;SDS011;49472;49.880;8.650;2023-02-14T12:44:42;28.50;;;25.70;;
63346;SDS011;49472;49.880;8.650;2023-02-14T12:47:15;30.07;;;27.00;;
63346;SDS011;49472;49.880;8.650;2023-02-14T12:50:45;28.13;;;25.33;;
63346;SDS011;49472;49.880;8.650;2023-02-14T13:03:42;32.10;;;28.70;;
63346;SDS011;49472;49.880;8.650;2023-02-14T13:06:42;30.70;;;27.40;;
63346;SDS011;49472;49.880;8.650;2023-02-14T13:17:11;30.17;;;27.07;;
63346;SDS011;49472;49.880;8.650;2023-02-14T13:22:32;31.70;;;28.50;;
63346;SDS011;49472;49.880;8.650;2023-02-14T13:25:02;33.30;;;29.67;;
63346;SDS011;49472;49.880;8.650;2023-02-14T13:27:31;35.13;;;29.70;;
63346;SDS011;49472;49.880;8.650;2023-02-14T13:30:07;36.50;;;31.30;;
63346;SDS011;49472;49.880;8.650;2023-02-14T13:32:38;39.97;;;32.63;;
63346;SDS011;49472;49.880;8.650;2023-02-14T13:35:06;33.80;;;30.30;;
63346;SDS011;49472;49.880;8.650;2023-02-14T13:37:32;34.20;;;30.50;;
63346;SDS011;49472;49.880;8.650;2023-02-14T13:50:30;33.73;;;30.23;;
63346;SDS011;49472;49.880;8.650;2023-02-14T13:53:02;34.53;;;31.03;;
63346;SDS011;49472;49.880;8.650;2023-02-14T13:55:30;46.20;;;33.40;;
63346;SDS011;49472;49.880;8.650;2023-02-14T13:58:02;36.13;;;32.33;;
63346;SDS011;49472;49.880;8.650;2023-02-14T14:00:43;34.13;;;30.10;;
63346;SDS011;49472;49.880;8.650;2023-02-14T14:03:11;34.83;;;31.03;;
63346;SDS011;49472;49.880;8.650;2023-02-14T14:06:10;40.45;;;31.33;;
63346;SDS011;49472;49.880;8.650;2023-02-14T14:08:37;41.17;;;32.20;;
63346;SDS011;49472;49.880;8.650;2023-02-14T14:11:08;45.83;;;33.13;;
63346;SDS011;49472;49.880;8.650;2023-02-14T14:13:57;37.73;;;32.70;;
63346;SDS011;49472;49.880;8.650;2023-02-14T14:16:32;38.90;;;33.03;;
63346;SDS011;49472;49.880;8.650;2023-02-14T14:21:34;36.57;;;32.60;;
63346;SDS011;49472;49.880;8.650;2023-02-14T14:24:21;36.10;;;32.28;;
63346;SDS011;49472;49.880;8.650;2023-02-14T14:29:36;35.33;;;31.60;;
63346;SDS011;49472;49.880;8.650;2023-02-14T14:32:11;35.88;;;32.00;;
63346;SDS011;49472;49.880;8.650;2023-02-14T14:34:47;37.53;;;33.60;;
63346;SDS011;49472;49.880;8.650;2023-02-14T14:37:22;37.00;;;31.48;;
63346;SDS011;49472;49.880;8.650;2023-02-14T14:39:51;34.73;;;30.93;;
63346;SDS011;49472;49.880;8.650;2023-02-14T14:42:18;34.92;;;31.13;;
63346;SDS011;49472;49.880;8.650;2023-02-14T14:45:04;42.30;;;31.70;;
63346;SDS011;49472;49.880;8.650;2023-02-14T14:47:43;38.87;;;31.33;;
63346;SDS011;49472;49.880;8.650;2023-02-14T14:50:26;37.23;;;31.67;;
63346;SDS011;49472;49.880;8.650;2023-02-14T14:52:55;33.73;;;30.17;;
63346;SDS011;49472;49.880;8.650;2023-02-14T14:55:23;38.63;;;33.20;;
63346;SDS011;49472;49.880;8.650;2023-02-14T14:57:55;41.47;;;33.43;;
63346;SDS011;49472;49.880;8.650;2023-02-14T15:00:30;37.50;;;31.20;;
63346;SDS011;49472;49.880;8.650;2023-02-14T15:03:12;40.60;;;35.20;;
63346;SDS011;49472;49.880;8.650;2023-02-14T15:05:40;37.83;;;32.67;;
63346;SDS011;49472;49.880;8.650;2023-02-14T15:10:56;38.53;;;32.73;;
63346;SDS011;49472;49.880;8.650;2023-02-14T15:13:28;40.60;;;34.00;;
63346;SDS011;49472;49.880;8.650;2023-02-14T15:19:44;42.80;;;32.97;;
63346;SDS011;49472;49.880;8.650;2023-02-14T15:24:46;52.13;;;35.17;;
63346;SDS011;49472;49.880;8.650;2023-02-14T15:27:13;51.90;;;36.00;;
63346;SDS011;49472;49.880;8.650;2023-02-14T15:29:40;43.37;;;33.70;;
63346;SDS011;49472;49.880;8.650;2023-02-14T15:32:07;49.07;;;34.37;;
63346;SDS011;49472;49.880;8.650;2023-02-14T15:34:34;52.40;;;36.10;;
63346;SDS011;49472;49.880;8.650;2023-02-14T15:37:00;52.80;;;35.00;;
63346;SDS011;49472;49.880;8.650;2023-02-14T15:39:43;53.50;;;35.30;;
63346;SDS011;49472;49.880;8.650;2023-02-14T15:42:18;46.23;;;34.30;;
63346;SDS011;49472;49.880;8.650;2023-02-14T15:47:39;48.33;;;35.53;;
63346;SDS011;49472;49.880;8.650;2023-02-14T15:50:18;52.07;;;35.90;;
63346;SDS011;49472;49.880;8.650;2023-02-14T15:52:48;56.67;;;36.30;;
63346;SDS011;49472;49.880;8.650;2023-02-14T15:55:16;54.20;;;37.10;;
63346;SDS011;49472;49.880;8.650;2023-02-14T15:57:44;47.50;;;35.83;;
63346;SDS011;49472;49.880;8.650;2023-02-14T16:00:18;47.97;;;37.37;;
63346;SDS011;49472;49.880;8.650;2023-02-14T16:02:48;50.33;;;37.30;;
63346;SDS011;49472;49.880;8.650;2023-02-14T16:05:18;57.13;;;38.43;;
63346;SDS011;49472;49.880;8.650;2023-02-14T16:07:59;55.90;;;36.57;;
63346;SDS011;49472;49.880;8.650;2023-02-14T16:10:57;51.93;;;36.13;;
63346;SDS011;49472;49.880;8.650;2023-02-14T16:13:27;48.73;;;36.13;;
63346;SDS011;49472;49.880;8.650;2023-02-14T16:15:59;58.63;;;37.67;;
63346;SDS011;49472;49.880;8.650;2023-02-14T16:18:32;56.73;;;37.20;;
63346;SDS011;49472;49.880;8.650;2023-02-14T16:21:11;63.07;;;38.57;;
63346;SDS011;49472;49.880;8.650;2023-02-14T16:23:43;57.97;;;37.17;;
63346;SDS011;49472;49.880;8.650;2023-02-14T16:26:10;51.67;;;35.20;;
63346;SDS011;49472;49.880;8.650;2023-02-14T16:28:35;48.80;;;36.23;;
63346;SDS011;49472;49.880;8.650;2023-02-14T16:31:01;55.87;;;38.20;;
63346;SDS011;49472;49.880;8.650;2023-02-14T16:33:31;52.77;;;37.67;;
63346;SDS011;49472;49.880;8.650;2023-02-14T16:36:05;52.27;;;37.17;;
63346;SDS011;49472;49.880;8.650;2023-02-14T16:38:45;61.28;;;41.47;;
63346;SDS011;49472;49.880;8.650;2023-02-14T16:41:17;60.00;;;39.80;;
63346;SDS011;49472;49.880;8.650;2023-02-14T16:43:47;55.03;;;38.87;;
63346;SDS011;49472;49.880;8.650;2023-02-14T16:46:14;57.53;;;41.93;;
63346;SDS011;49472;49.880;8.650;2023-02-14T16:48:41;54.40;;;36.60;;
63346;SDS011;49472;49.880;8.650;2023-02-14T16:51:13;51.17;;;37.20;;
63346;SDS011;49472;49.880;8.650;2023-02-14T16:53:39;57.70;;;37.13;;
63346;SDS011;49472;49.880;8.650;2023-02-14T16:56:06;52.43;;;35.53;;
63346;SDS011;49472;49.880;8.650;2023-02-14T16:58:54;51.37;;;36.47;;
63346;SDS011;49472;49.880;8.650;2023-02-14T17:01:21;51.13;;;34.77;;
63346;SDS011;49472;49.880;8.650;2023-02-14T17:03:47;58.07;;;38.10;;
63346;SDS011;49472;49.880;8.650;2023-02-14T17:06:13;51.30;;;36.87;;
63346;SDS011;49472;49.880;8.650;2023-02-14T17:08:43;53.43;;;35.47;;